This is the latest recevied weather packets stored in our database for station/object KE8DDT-7. If no packets are shown the sender has not sent any weather packets the latest 10 day(s).
| Time | Temp. | Humidity | Pressure | Rain* | Wind** | Luminosity | Snow |
|---|---|---|---|---|---|---|---|
| 1777957675 | 13.33° C | 85% | 992.2 hPa | 0.76 mm | - | 0 W/m² | - |
| 1777957375 | 13.33° C | 85% | 992.5 hPa | 0.76 mm | - | 0 W/m² | - |
| 1777957075 | 13.33° C | 85% | 992.6 hPa | 0.76 mm | - | 0 W/m² | - |
| 1777956775 | 13.33° C | 85% | 992.7 hPa | 0.76 mm | - | 0 W/m² | - |
| 1777956475 | 13.33° C | 85% | 992.8 hPa | 0.76 mm | - | 0 W/m² | - |
| 1777956177 | 13.33° C | 85% | 992.6 hPa | 0.76 mm | - | 0 W/m² | - |
| 1777955875 | 13.89° C | 84% | 992.6 hPa | 0.76 mm | - | 0 W/m² | - |
| 1777955656 | 13.89° C | 83% | 992.4 hPa | 0.76 mm | - | 0 W/m² | - |
| 1777955575 | 13.89° C | 84% | 992.6 hPa | 0.76 mm | - | 0 W/m² | - |
| 1777955275 | 13.89° C | 83% | 992.4 hPa | 0.76 mm | - | 0 W/m² | - |
| 1777954975 | 14.44° C | 81% | 992.8 hPa | 0.76 mm | - | 0 W/m² | - |
| 1777954675 | 15° C | 79% | 993.7 hPa | 0.25 mm | - | 0 W/m² | - |
| 1777954375 | 15.56° C | 76% | 993.8 hPa | 0 mm | - | 0 W/m² | - |
| 1777954075 | 16.67° C | 72% | 993.7 hPa | 0 mm | - | 0 W/m² | - |
| 1777953775 | 17.22° C | 69% | 993.5 hPa | 0 mm | - | 0 W/m² | - |
| 1777953475 | 17.78° C | 69% | 993.3 hPa | 0 mm | - | 0 W/m² | - |
| 1777953175 | 18.33° C | 69% | 993.2 hPa | 0 mm | - | 0 W/m² | - |
| 1777952875 | 18.33° C | 69% | 992.9 hPa | 0 mm | - | 0 W/m² | - |
| 1777952575 | 17.78° C | 69% | 992.8 hPa | 0 mm | - | 0 W/m² | - |
| 1777952275 | 17.78° C | 70% | 992.7 hPa | 0 mm | - | 0 W/m² | - |
| 1777951975 | 17.78° C | 71% | 992.6 hPa | 0 mm | - | 0 W/m² | - |
| 1777951675 | 17.78° C | 71% | 992.6 hPa | 0 mm | - | 0 W/m² | - |
| 1777951375 | 17.22° C | 71% | 992.6 hPa | 0 mm | - | 0 W/m² | - |
| 1777951075 | 17.22° C | 72% | 992.6 hPa | 0 mm | - | 0 W/m² | - |
| 1777950775 | 17.22° C | 72% | 992.5 hPa | 0 mm | - | 0 W/m² | - |
* Rain latest hour (hover to see other rain measurements)
** Current wind speed in m/s (hover to see current wind gust speed)